B.no.260 — WDE4883 — position and weather

sailwx.info

Track history (hours):
 
Tides and Currents Weather Stations Pressure Air Temp Water Temp Dewpoint Dewpoint Depression Visibility Wind Speed Wind Dir Waves Ship Positions

B.no.260

Owner: B.No.260 Corporation, Melville, NY. More information available from US FCC via Universal Licensing System and Coast Guard Vessel Documentation Center.

Last reported at 2017-Oct-22 14:19 UTC. Time now 2017-Nov-19 10:09 UTC.
Position N 40°06' W 074°02'.
Warning: this ship's position is 27 days out of date.

Length 22 m.

Type: Fishing. MMSI: 367356550.

Date/timePositionNaut miles runAvg speedWind from/ knotsBaromVisibWave heightAir tempDewpointWater temp
2017-Oct-22 14:19N 40°06' W 074°02'0 0.0
2017-Oct-22 13:52N 40°06' W 074°02'0 0.0
2017-Oct-22 13:13N 40°06' W 074°02'0 0.0
2017-Oct-22 10:49N 40°06' W 074°02'0 0.0
2017-Oct-22 10:25N 40°06' W 074°02'0 0.0
2017-Oct-22 09:52N 40°06' W 074°02'0 0.0
2017-Oct-22 09:28N 40°06' W 074°02'0 0.0
2017-Oct-22 08:58N 40°06' W 074°02'0 0.0
2017-Oct-22 08:28N 40°06' W 074°02'0 0.0
2017-Oct-22 07:49N 40°06' W 074°02'0 0.0
2017-Oct-22 07:28N 40°06' W 074°02'0 0.0
2017-Oct-22 06:58N 40°06' W 074°02'0 0.0
2017-Oct-22 06:28N 40°06' W 074°02'0 0.0
2017-Oct-22 05:52N 40°06' W 074°02'0 0.0
2017-Oct-22 05:25N 40°06' W 074°02'0 0.0
2017-Oct-22 04:58N 40°06' W 074°02'0 0.0
2017-Oct-22 04:01N 40°06' W 074°02'0 0.0
2017-Oct-22 03:55N 40°06' W 074°02'0 0.0
2017-Oct-22 03:28N 40°06' W 074°02'0 0.0
2017-Oct-22 02:58N 40°06' W 074°02'0 0.0
2017-Oct-22 02:28N 40°06' W 074°02'0 0.0
2017-Oct-21 14:14N 40°06' W 074°02'30 1.0
2017-Oct-20 08:20N 40°02' W 073°24'2 7.2
2017-Oct-20 08:00N 40°03' W 073°27'4 7.2
2017-Oct-20 07:30N 40°03' W 073°31'4 7.4
2017-Oct-20 07:00N 40°04' W 073°36'4 7.7
2017-Oct-20 06:29N 40°04' W 073°41'4 7.8
2017-Oct-20 06:00N 40°04' W 073°46'4 7.8
2017-Oct-20 05:30N 40°05' W 073°51'  
Track history (hours):
 
Tides and Currents Weather Stations Pressure Air Temp Water Temp Dewpoint Dewpoint Depression Visibility Wind Speed Wind Dir Waves Ship Positions

B.no.260

Owner: B.No.260 Corporation, Melville, NY. More information available from US FCC via Universal Licensing System and Coast Guard Vessel Documentation Center.

Last reported at 2017-Oct-22 14:19 UTC. Time now 2017-Nov-19 10:09 UTC.
Position N 40°06' W 074°02'.
Warning: this ship's position is 27 days out of date.

Length 22 m.

Type: Fishing. MMSI: 367356550.

Date/timePositionNaut miles runAvg speedWind from/ knotsBaromVisibWave heightAir tempDewpointWater temp
2017-Oct-22 14:19N 40°06' W 074°02'0 0.0
2017-Oct-22 13:52N 40°06' W 074°02'0 0.0
2017-Oct-22 13:13N 40°06' W 074°02'0 0.0
2017-Oct-22 10:49N 40°06' W 074°02'0 0.0
2017-Oct-22 10:25N 40°06' W 074°02'0 0.0
2017-Oct-22 09:52N 40°06' W 074°02'0 0.0
2017-Oct-22 09:28N 40°06' W 074°02'0 0.0
2017-Oct-22 08:58N 40°06' W 074°02'0 0.0
2017-Oct-22 08:28N 40°06' W 074°02'0 0.0
2017-Oct-22 07:49N 40°06' W 074°02'0 0.0
2017-Oct-22 07:28N 40°06' W 074°02'0 0.0
2017-Oct-22 06:58N 40°06' W 074°02'0 0.0
2017-Oct-22 06:28N 40°06' W 074°02'0 0.0
2017-Oct-22 05:52N 40°06' W 074°02'0 0.0
2017-Oct-22 05:25N 40°06' W 074°02'0 0.0
2017-Oct-22 04:58N 40°06' W 074°02'0 0.0
2017-Oct-22 04:01N 40°06' W 074°02'0 0.0
2017-Oct-22 03:55N 40°06' W 074°02'0 0.0
2017-Oct-22 03:28N 40°06' W 074°02'0 0.0
2017-Oct-22 02:58N 40°06' W 074°02'0 0.0
2017-Oct-22 02:28N 40°06' W 074°02'0 0.0
2017-Oct-21 14:14N 40°06' W 074°02'30 1.0
2017-Oct-20 08:20N 40°02' W 073°24'2 7.2
2017-Oct-20 08:00N 40°03' W 073°27'4 7.2
2017-Oct-20 07:30N 40°03' W 073°31'4 7.4
2017-Oct-20 07:00N 40°04' W 073°36'4 7.7
2017-Oct-20 06:29N 40°04' W 073°41'4 7.8
2017-Oct-20 06:00N 40°04' W 073°46'4 7.8
2017-Oct-20 05:30N 40°05' W 073°51'  

Dump ship's entire track history